Lakeside, Iowa
Current Conditions -  °F | °C
As of 1:15 PM on Monday 22 Dec 2014 (Local Time) from KSLB Reporting Station
Haze Haze  
Wind Chill: 32°   Ceiling: 500
Heat Index: 39°   Visibility: 4mi
Dew Point: 39°   Wind: 13mph
Humidity: 100%   Direction: 140°SE
Pressure: 29.44"   Gusts: 18mph
Location:  42.674°N, 95.1635°W
Report Text: KSLB 221915Z AUTO 14011G16KT 4SM BR OVC005 04/04 A2944 RMK AO2
Loading
Personal Weather Stations






























Interactive Weather Map New forecast layout! Learn more

10-Day Weather Forecast

Advertisements
Track Severe Weather on mobile